createdAt,value
2017-11-09T00:01:34.844Z,27.47
2017-11-09T00:04:08.848Z,27.10
2017-11-09T00:06:37.375Z,25.43
2017-11-09T00:09:05.723Z,28.70
2017-11-09T00:11:34.472Z,25.10
2017-11-09T00:14:03.168Z,27.33
2017-11-09T00:16:34.880Z,26.07
2017-11-09T00:19:03.534Z,27.67
2017-11-09T00:21:32.233Z,26.70
2017-11-09T00:24:00.892Z,25.90
2017-11-09T00:26:29.788Z,25.20
2017-11-09T00:28:58.444Z,25.37
2017-11-09T00:31:27.183Z,26.57
2017-11-09T00:33:55.880Z,26.60
2017-11-09T00:36:24.552Z,25.80
2017-11-09T00:38:53.222Z,26.00
2017-11-09T00:41:22.887Z,25.43
2017-11-09T00:43:51.604Z,25.63
2017-11-09T00:46:20.316Z,25.20
2017-11-09T00:48:48.986Z,26.97
2017-11-09T00:51:17.627Z,27.43
2017-11-09T00:53:46.332Z,25.50
2017-11-09T00:56:15.010Z,25.77
2017-11-09T00:58:43.711Z,25.67
2017-11-09T01:01:16.126Z,26.20
2017-11-09T01:03:45.045Z,25.00
2017-11-09T01:06:13.695Z,25.90
2017-11-09T01:08:42.386Z,24.70
2017-11-09T01:11:11.117Z,25.40
2017-11-09T01:13:39.798Z,25.77
2017-11-09T01:16:08.490Z,25.20
2017-11-09T01:18:37.648Z,25.50
2017-11-09T01:21:06.294Z,25.23
2017-11-09T01:23:35.026Z,23.23
2017-11-09T01:26:03.674Z,24.97
2017-11-09T01:28:32.327Z,25.00
2017-11-09T01:31:01.028Z,26.17
2017-11-09T01:33:29.689Z,25.23
2017-11-09T01:35:58.973Z,25.10
2017-11-09T01:38:27.624Z,24.00
2017-11-09T01:40:56.279Z,25.53
2017-11-09T01:43:25.024Z,23.07
2017-11-09T01:45:53.721Z,24.70
2017-11-09T01:48:22.444Z,24.97
2017-11-09T01:50:51.378Z,23.80
2017-11-09T01:53:20.089Z,25.50
2017-11-09T01:55:48.859Z,25.07
2017-11-09T01:58:17.603Z,25.37
2017-11-09T02:00:46.304Z,25.67
2017-11-09T02:03:14.999Z,25.57
2017-11-09T02:05:44.400Z,24.97
2017-11-09T02:08:13.055Z,23.60
2017-11-09T02:10:41.772Z,25.70
2017-11-09T02:13:10.439Z,24.00
2017-11-09T02:15:39.150Z,24.80
2017-11-09T02:18:07.860Z,23.37
2017-11-09T02:20:36.231Z,25.33
2017-11-09T02:23:05.142Z,25.83
2017-11-09T02:25:33.516Z,26.07
2017-11-09T02:28:02.229Z,25.53
2017-11-09T02:30:30.640Z,23.73
2017-11-09T02:32:59.162Z,25.03
2017-11-09T02:35:27.872Z,23.57
2017-11-09T02:37:56.250Z,24.70
2017-11-09T02:40:24.929Z,24.50
2017-11-09T02:42:53.701Z,27.20
2017-11-09T02:45:22.364Z,24.63
2017-11-09T02:47:51.080Z,27.50
2017-11-09T02:50:19.778Z,26.67
2017-11-09T02:52:48.439Z,25.80
2017-11-09T02:55:16.876Z,27.20
2017-11-09T02:57:45.564Z,26.37
2017-11-09T03:00:13.970Z,24.67
2017-11-09T03:02:42.628Z,25.93
2017-11-09T03:05:11.285Z,27.70
2017-11-09T03:07:40.073Z,24.40
2017-11-09T03:10:08.775Z,26.83
2017-11-09T03:12:37.453Z,26.53
2017-11-09T03:15:06.163Z,26.20
2017-11-09T03:17:34.840Z,25.53
2017-11-09T03:20:03.550Z,27.53
2017-11-09T03:22:32.226Z,25.53
2017-11-09T03:25:00.938Z,25.87
2017-11-09T03:27:29.633Z,25.77
2017-11-09T03:29:58.322Z,27.20
2017-11-09T03:32:27.299Z,25.57
2017-11-09T03:34:55.964Z,26.80
2017-11-09T03:37:24.633Z,25.60
2017-11-09T03:39:53.349Z,25.87
2017-11-09T03:42:22.011Z,24.67
2017-11-09T03:44:50.719Z,26.50
2017-11-09T03:47:19.483Z,25.70
2017-11-09T03:49:48.145Z,25.27
2017-11-09T03:52:16.860Z,28.53
2017-11-09T03:54:45.540Z,26.20
2017-11-09T03:57:14.202Z,25.37
2017-11-09T03:59:42.904Z,26.50
2017-11-09T04:02:11.540Z,27.37
2017-11-09T04:04:40.187Z,27.30
2017-11-09T04:07:10.314Z,26.90
2017-11-09T04:09:38.952Z,25.27
2017-11-09T04:12:07.696Z,25.23
2017-11-09T04:14:36.355Z,26.10
2017-11-09T04:17:08.043Z,26.57
2017-11-09T04:19:36.735Z,25.03
2017-11-09T04:22:05.429Z,26.77
2017-11-09T04:24:34.139Z,24.57
2017-11-09T04:27:09.235Z,27.87
2017-11-09T04:29:37.896Z,26.17
2017-11-09T04:32:06.622Z,26.23
2017-11-09T04:34:35.264Z,26.43
2017-11-09T04:37:03.936Z,27.17
2017-11-09T04:39:32.729Z,26.40
2017-11-09T04:42:01.840Z,25.20
2017-11-09T04:50:05.717Z,26.47
2017-11-09T04:52:39.231Z,26.23
2017-11-09T04:55:11.632Z,26.57
2017-11-09T04:57:45.733Z,25.93
2017-11-09T05:00:18.741Z,27.60
2017-11-09T05:02:47.475Z,26.83
2017-11-09T05:05:16.128Z,26.30
2017-11-09T05:07:44.772Z,26.07
2017-11-09T05:10:13.466Z,26.67
2017-11-09T05:12:42.274Z,26.20
2017-11-09T05:15:10.942Z,25.93
2017-11-09T05:17:39.594Z,25.40
2017-11-09T05:20:08.875Z,25.20
2017-11-09T05:22:37.545Z,26.77
2017-11-09T05:25:06.243Z,25.87
2017-11-09T05:27:34.929Z,26.70
2017-11-09T05:30:04.538Z,27.60
2017-11-09T05:32:33.457Z,26.90
2017-11-09T05:35:04.040Z,26.10
2017-11-09T05:37:32.734Z,27.17
2017-11-09T05:40:01.395Z,26.83
2017-11-09T05:42:30.132Z,27.37
2017-11-09T05:44:58.855Z,25.43
2017-11-09T05:47:27.577Z,25.43
2017-11-09T05:49:56.295Z,26.20
2017-11-09T05:52:24.991Z,26.53
2017-11-09T05:54:53.641Z,25.67
2017-11-09T05:57:22.309Z,24.90
2017-11-09T05:59:51.044Z,28.07
2017-11-09T06:02:25.955Z,25.27
2017-11-09T06:04:56.133Z,25.53
2017-11-09T06:07:24.912Z,27.00
2017-11-09T06:09:53.581Z,26.20
2017-11-09T06:12:22.288Z,27.07
2017-11-09T06:14:51.021Z,27.17
2017-11-09T06:17:19.711Z,27.83
2017-11-09T06:19:48.404Z,26.13
2017-11-09T06:22:17.068Z,27.00
2017-11-09T06:24:45.771Z,26.90
2017-11-09T06:27:14.435Z,28.50
2017-11-09T06:29:43.127Z,27.00
2017-11-09T06:32:11.776Z,29.10
2017-11-09T06:34:40.471Z,27.97
2017-11-09T06:37:09.136Z,28.63
2017-11-09T06:39:37.827Z,28.03
2017-11-09T06:42:06.487Z,25.87
2017-11-09T06:44:35.195Z,27.43
2017-11-09T06:47:07.088Z,27.87
2017-11-09T06:49:35.808Z,28.87
2017-11-09T06:52:04.465Z,28.40
2017-11-09T06:54:33.119Z,29.10
2017-11-09T06:57:04.388Z,28.67
2017-11-09T06:59:33.163Z,29.97
2017-11-09T07:02:01.867Z,27.90
2017-11-09T07:04:30.570Z,29.67
2017-11-09T07:06:59.220Z,27.93
2017-11-09T07:09:28.158Z,31.83
2017-11-09T07:11:56.840Z,30.97
2017-11-09T07:14:25.499Z,31.20
2017-11-09T07:16:54.212Z,30.37
2017-11-09T07:19:22.906Z,30.33
2017-11-09T07:21:51.567Z,31.20
2017-11-09T07:24:20.364Z,30.70
2017-11-09T07:26:49.051Z,29.97
2017-11-09T07:29:17.712Z,33.67
2017-11-09T07:31:46.148Z,29.90
2017-11-09T07:34:14.826Z,30.80
2017-11-09T07:36:43.531Z,30.93
2017-11-09T07:39:12.238Z,30.77
2017-11-09T07:41:40.891Z,31.10
2017-11-09T07:44:09.587Z,30.37
2017-11-09T07:46:38.258Z,28.80
2017-11-09T07:49:06.951Z,29.50
2017-11-09T07:51:35.814Z,30.83
2017-11-09T07:54:04.519Z,31.67
2017-11-09T07:56:33.186Z,30.73
2017-11-09T07:59:01.702Z,30.57
2017-11-09T08:01:30.400Z,30.07
2017-11-09T08:03:59.055Z,31.63
2017-11-09T08:06:27.753Z,29.27
2017-11-09T08:08:56.460Z,33.13
2017-11-09T08:11:25.116Z,29.70
2017-11-09T08:13:53.832Z,31.87
2017-11-09T08:16:22.527Z,32.67
2017-11-09T08:18:51.170Z,31.13
2017-11-09T08:21:19.869Z,31.17
2017-11-09T08:23:48.520Z,29.97
2017-11-09T08:26:17.993Z,28.40
2017-11-09T08:28:51.034Z,28.60
2017-11-09T08:31:32.749Z,29.40
2017-11-09T08:34:11.594Z,30.07
2017-11-09T08:36:40.755Z,29.13
2017-11-09T08:39:09.461Z,29.83
2017-11-09T08:41:38.355Z,30.37
2017-11-09T08:44:07.013Z,30.10
2017-11-09T08:46:35.919Z,29.87
2017-11-09T08:49:04.618Z,29.87
2017-11-09T08:51:33.375Z,30.13
2017-11-09T08:54:02.059Z,30.87
2017-11-09T08:56:30.705Z,30.63
2017-11-09T08:58:59.531Z,31.73
2017-11-09T09:01:28.177Z,30.07
2017-11-09T09:03:56.877Z,30.87
2017-11-09T09:06:25.524Z,29.80
2017-11-09T09:08:54.163Z,29.77
2017-11-09T09:11:22.719Z,30.80
2017-11-09T09:13:51.249Z,28.83
2017-11-09T09:16:19.827Z,29.53
2017-11-09T09:18:48.331Z,29.97
2017-11-09T09:21:27.729Z,30.93
2017-11-09T09:27:09.433Z,31.60
2017-11-09T09:29:39.351Z,30.63
2017-11-09T09:32:07.864Z,30.97
2017-11-09T09:37:56.541Z,33.13
2017-11-09T09:40:28.541Z,32.40
2017-11-09T09:42:57.104Z,29.27
2017-11-09T09:45:25.681Z,33.53
2017-11-09T09:47:54.239Z,33.07
2017-11-09T09:50:22.776Z,30.97
2017-11-09T09:52:51.490Z,33.07
2017-11-09T09:55:20.009Z,30.63
2017-11-09T09:57:48.578Z,33.83
2017-11-09T10:00:17.171Z,32.40
2017-11-09T10:02:45.823Z,32.37
2017-11-09T10:05:14.493Z,34.80
2017-11-09T10:07:43.247Z,31.40
2017-11-09T10:10:11.756Z,34.77
2017-11-09T10:12:40.527Z,33.67
2017-11-09T10:15:09.190Z,34.03
2017-11-09T10:17:37.836Z,33.10
2017-11-09T10:20:06.535Z,34.73
2017-11-09T10:22:35.526Z,33.47
2017-11-09T10:25:04.184Z,33.20
2017-11-09T10:27:32.900Z,32.10
2017-11-09T10:30:01.550Z,32.60
2017-11-09T10:32:31.078Z,31.97
2017-11-09T10:34:59.784Z,35.60
2017-11-09T10:37:28.427Z,31.80
2017-11-09T10:39:57.128Z,33.50
2017-11-09T10:42:25.796Z,37.53
2017-11-09T10:44:54.446Z,36.20
2017-11-09T10:47:23.132Z,36.10
2017-11-09T10:49:51.471Z,35.17
2017-11-09T10:52:20.215Z,36.70
2017-11-09T10:54:48.865Z,35.37
2017-11-09T10:57:17.551Z,39.20
2017-11-09T10:59:46.271Z,36.93
2017-11-09T11:02:17.766Z,38.33
2017-11-09T11:04:46.494Z,38.87
2017-11-09T11:07:15.177Z,42.20
2017-11-09T11:09:43.906Z,38.63
2017-11-09T11:12:12.554Z,40.10
2017-11-09T11:14:41.249Z,40.40
2017-11-09T11:17:09.919Z,40.60
2017-11-09T11:19:38.638Z,42.47
2017-11-09T11:22:07.300Z,42.60
2017-11-09T11:24:35.965Z,42.90
2017-11-09T11:27:08.752Z,42.90
2017-11-09T11:29:37.423Z,43.27
2017-11-09T11:32:06.192Z,45.17
2017-11-09T11:34:34.845Z,42.50
2017-11-09T11:37:06.750Z,41.27
2017-11-09T11:39:35.468Z,42.30
2017-11-09T11:42:04.115Z,45.13
2017-11-09T11:44:32.829Z,43.20
2017-11-09T11:47:06.217Z,43.10
2017-11-09T11:49:34.921Z,41.47
2017-11-09T11:52:03.575Z,42.53
2017-11-09T11:54:32.228Z,40.03
2017-11-09T11:57:04.752Z,40.70
2017-11-09T11:59:33.956Z,40.93
2017-11-09T12:02:02.674Z,41.07
2017-11-09T12:04:31.339Z,41.63
2017-11-09T12:06:59.990Z,39.37
2017-11-09T12:09:28.686Z,39.10
2017-11-09T12:12:00.305Z,39.10
2017-11-09T12:14:29.020Z,40.00
2017-11-09T12:16:57.678Z,38.63
2017-11-09T12:19:26.512Z,39.13
2017-11-09T12:21:55.216Z,38.30
2017-11-09T12:24:23.880Z,39.10
2017-11-09T12:26:52.577Z,37.80
2017-11-09T12:29:21.225Z,40.33
2017-11-09T12:31:49.399Z,37.30
2017-11-09T12:34:18.109Z,35.87
2017-11-09T12:36:46.805Z,38.23
2017-11-09T12:39:15.521Z,39.23
2017-11-09T12:41:44.187Z,40.83
2017-11-09T12:44:12.840Z,38.00
2017-11-09T12:46:41.575Z,37.83
2017-11-09T12:49:10.275Z,37.67
2017-11-09T12:51:38.943Z,36.93
2017-11-09T12:54:07.683Z,36.07
2017-11-09T12:56:36.381Z,37.67
2017-11-09T12:59:05.085Z,36.70
2017-11-09T13:01:33.746Z,35.70
2017-11-09T13:04:02.428Z,36.70
2017-11-09T13:06:30.990Z,37.00
2017-11-09T13:08:59.701Z,37.13
2017-11-09T13:11:28.377Z,35.10
2017-11-09T13:13:57.082Z,35.47
2017-11-09T13:16:25.599Z,38.07
2017-11-09T13:18:54.151Z,37.30
2017-11-09T13:21:22.734Z,36.50
2017-11-09T13:23:51.464Z,35.80
2017-11-09T13:26:20.135Z,37.90
2017-11-09T13:28:48.815Z,35.40
2017-11-09T13:31:17.392Z,38.40
2017-11-09T13:33:46.911Z,37.60
2017-11-09T13:36:15.672Z,35.17
2017-11-09T13:38:44.458Z,37.57
2017-11-09T13:41:13.100Z,38.03
2017-11-09T13:43:41.796Z,38.27
2017-11-09T13:46:10.493Z,38.90
2017-11-09T13:48:39.209Z,37.37
2017-11-09T13:51:07.860Z,39.00
2017-11-09T13:53:36.521Z,39.23
2017-11-09T13:56:05.213Z,36.87
2017-11-09T13:58:33.881Z,38.30
2017-11-09T14:01:02.595Z,36.40
2017-11-09T14:03:31.267Z,36.50
2017-11-09T14:05:59.920Z,38.20
2017-11-09T14:08:46.399Z,36.40
2017-11-09T14:11:28.159Z,35.27
2017-11-09T14:14:11.365Z,35.47
2017-11-09T14:16:51.356Z,35.23
2017-11-09T14:19:36.835Z,34.93
2017-11-09T14:25:10.450Z,36.67
2017-11-09T14:27:53.685Z,37.03
2017-11-09T14:30:40.785Z,34.93
2017-11-09T14:33:25.884Z,36.57
2017-11-09T14:36:09.733Z,33.40
2017-11-09T14:39:02.454Z,34.50
2017-11-09T14:41:40.826Z,35.23
2017-11-09T14:44:24.101Z,35.80
2017-11-09T14:46:55.928Z,33.17
2017-11-09T14:49:39.464Z,36.93
2017-11-09T14:52:19.227Z,38.67
2017-11-09T14:55:00.350Z,35.13
2017-11-09T14:57:38.677Z,35.87
2017-11-09T15:00:20.196Z,36.77
2017-11-09T15:03:00.149Z,37.80
2017-11-09T15:05:47.145Z,34.07
2017-11-09T15:11:14.923Z,38.97
2017-11-09T15:13:59.179Z,37.67
2017-11-09T15:16:43.590Z,38.80
2017-11-09T15:19:23.612Z,37.63
2017-11-09T15:22:07.140Z,38.93
2017-11-09T15:24:56.930Z,40.20
2017-11-09T15:27:43.317Z,39.00
2017-11-09T15:30:28.933Z,38.60
2017-11-09T15:33:16.145Z,39.20
2017-11-09T15:36:15.402Z,38.67
2017-11-09T15:39:00.053Z,39.03
2017-11-09T15:41:44.144Z,40.70
2017-11-09T15:44:29.061Z,37.97
2017-11-09T15:50:07.535Z,40.17
2017-11-09T15:52:47.692Z,41.53
2017-11-09T15:58:18.105Z,41.60
2017-11-09T16:01:02.476Z,41.20
2017-11-09T16:03:45.770Z,39.80
2017-11-09T16:09:14.254Z,41.90
2017-11-09T16:11:56.860Z,42.47
2017-11-09T16:14:39.229Z,42.33
2017-11-09T16:17:21.545Z,41.87
2017-11-09T16:20:06.715Z,43.97
2017-11-09T16:22:48.437Z,41.80
2017-11-09T16:25:30.324Z,40.13
2017-11-09T16:28:08.672Z,42.77
2017-11-09T16:31:00.801Z,42.07
2017-11-09T16:33:43.669Z,41.70
2017-11-09T16:36:19.309Z,44.00
2017-11-09T16:39:00.455Z,43.07
2017-11-09T16:41:45.581Z,43.93
2017-11-09T16:44:29.630Z,43.43
2017-11-09T16:47:19.369Z,44.27
2017-11-09T16:49:58.331Z,45.03
2017-11-09T16:52:35.892Z,46.10
2017-11-09T16:55:18.492Z,42.90
2017-11-09T16:58:02.186Z,41.97
2017-11-09T17:00:41.029Z,43.87
2017-11-09T17:03:24.257Z,40.77
2017-11-09T17:06:04.119Z,39.30
2017-11-09T17:08:47.062Z,41.30
2017-11-09T17:11:31.628Z,40.47
2017-11-09T17:14:18.472Z,38.77
2017-11-09T17:17:03.999Z,39.90
2017-11-09T17:19:45.812Z,38.67
2017-11-09T17:25:18.307Z,37.97
2017-11-09T17:28:03.364Z,37.53
2017-11-09T17:30:48.623Z,39.20
2017-11-09T17:33:33.722Z,36.90
2017-11-09T17:36:19.219Z,37.80
2017-11-09T17:39:06.169Z,36.50
2017-11-09T17:41:49.805Z,35.13
2017-11-09T17:44:36.803Z,36.60
2017-11-09T17:47:23.784Z,35.87
2017-11-09T17:50:04.234Z,37.17
2017-11-09T17:52:48.744Z,37.43
2017-11-09T17:55:28.877Z,38.37
2017-11-09T17:58:11.127Z,35.63
2017-11-09T18:00:53.018Z,34.83
2017-11-09T18:03:37.341Z,35.90
2017-11-09T18:06:22.034Z,34.37
2017-11-09T18:09:10.135Z,35.47
2017-11-09T18:11:52.694Z,34.70
2017-11-09T18:14:38.866Z,36.03
2017-11-09T18:17:22.982Z,36.10
2017-11-09T18:20:06.082Z,35.40
2017-11-09T18:22:56.263Z,34.63
2017-11-09T18:25:39.856Z,34.00
2017-11-09T18:28:21.931Z,35.50
2017-11-09T18:31:08.375Z,34.67
2017-11-09T18:33:53.989Z,33.97
2017-11-09T18:36:40.193Z,35.87
2017-11-09T18:39:28.651Z,34.83
2017-11-09T18:42:17.762Z,35.40
2017-11-09T18:45:02.731Z,35.33
2017-11-09T18:47:51.030Z,33.97
2017-11-09T18:50:37.409Z,33.33
2017-11-09T18:53:23.783Z,34.47
2017-11-09T18:56:08.911Z,33.70
2017-11-09T18:58:54.546Z,33.17
2017-11-09T19:01:38.715Z,33.43
2017-11-09T19:04:22.942Z,34.60
2017-11-09T19:07:07.043Z,32.57
2017-11-09T19:09:52.761Z,33.37
2017-11-09T19:12:38.700Z,30.00
2017-11-09T19:15:18.881Z,30.27
2017-11-09T19:18:03.493Z,32.00
2017-11-09T19:20:46.330Z,31.03
2017-11-09T19:23:29.621Z,30.50
2017-11-09T19:26:12.985Z,31.20
2017-11-09T19:28:55.515Z,32.40
2017-11-09T19:31:38.678Z,30.83
2017-11-09T19:34:20.076Z,31.10
2017-11-09T19:37:06.653Z,32.03
2017-11-09T19:39:54.302Z,33.30
2017-11-09T19:42:38.270Z,33.30
2017-11-09T19:45:26.982Z,33.20
2017-11-09T19:48:11.673Z,31.33
2017-11-09T19:50:53.490Z,31.40
2017-11-09T19:53:37.689Z,32.73
2017-11-09T19:56:24.498Z,32.97
2017-11-09T19:59:07.020Z,31.97
2017-11-09T20:01:52.629Z,31.73
2017-11-09T20:07:20.645Z,32.87
2017-11-09T20:10:06.851Z,33.27
2017-11-09T20:12:50.999Z,31.13
2017-11-09T20:15:35.393Z,32.77
2017-11-09T20:18:21.477Z,32.10
2017-11-09T20:21:07.605Z,29.80
2017-11-09T20:23:56.352Z,31.30
2017-11-09T20:26:41.310Z,30.73
2017-11-09T20:29:26.029Z,28.77
2017-11-09T20:32:09.896Z,28.43
2017-11-09T20:34:53.410Z,28.27
2017-11-09T20:37:34.401Z,29.50
2017-11-09T20:40:13.749Z,28.23
2017-11-09T20:42:56.496Z,27.97
2017-11-09T20:45:40.330Z,28.93
2017-11-09T20:48:23.179Z,24.97
2017-11-09T20:51:04.805Z,26.23
2017-11-09T20:56:34.277Z,23.50
2017-11-09T20:59:14.878Z,25.47
2017-11-09T21:01:44.552Z,24.50
2017-11-09T21:04:14.933Z,24.43
2017-11-09T21:06:43.735Z,24.80
2017-11-09T21:09:12.399Z,24.70
2017-11-09T21:11:41.104Z,25.33
2017-11-09T21:14:09.812Z,22.90
2017-11-09T21:16:41.359Z,25.20
2017-11-09T21:19:22.207Z,24.87
2017-11-09T21:22:07.076Z,26.37
2017-11-09T21:24:43.468Z,25.27
2017-11-09T21:27:18.902Z,25.00
2017-11-09T21:29:49.886Z,25.73
2017-11-09T21:32:20.616Z,24.10
2017-11-09T21:34:53.791Z,26.30
2017-11-09T21:37:26.097Z,25.57
2017-11-09T21:39:57.781Z,27.00
2017-11-09T21:42:28.983Z,26.10
2017-11-09T21:44:59.948Z,27.00
2017-11-09T21:47:30.979Z,26.40
2017-11-09T21:50:02.705Z,26.97
2017-11-09T21:52:32.757Z,27.40
2017-11-09T21:55:03.237Z,27.00
2017-11-09T21:57:33.483Z,27.80
2017-11-09T22:00:08.800Z,27.10
2017-11-09T22:02:37.502Z,27.80
2017-11-09T22:05:06.210Z,28.63
2017-11-09T22:07:34.872Z,28.83
2017-11-09T22:10:03.594Z,25.80
2017-11-09T22:12:32.275Z,27.67
2017-11-09T22:15:01.094Z,27.50
2017-11-09T22:17:30.295Z,30.07
2017-11-09T22:19:58.935Z,29.07
2017-11-09T22:22:27.626Z,28.63
2017-11-09T22:24:56.528Z,28.20
2017-11-09T22:27:25.219Z,26.60
2017-11-09T22:29:54.014Z,27.10
2017-11-09T22:32:22.672Z,27.90
2017-11-09T22:34:51.877Z,27.47
2017-11-09T22:37:20.603Z,26.70
2017-11-09T22:39:49.242Z,28.20
2017-11-09T22:42:17.930Z,26.50
2017-11-09T22:44:46.631Z,28.80
2017-11-09T22:47:15.282Z,27.57
2017-11-09T22:49:46.049Z,24.30
2017-11-09T22:52:16.773Z,27.20
2017-11-09T22:54:45.527Z,26.43
2017-11-09T22:57:14.471Z,27.00
2017-11-09T22:59:43.188Z,25.80
2017-11-09T23:02:11.827Z,26.60
2017-11-09T23:04:40.524Z,26.17
2017-11-09T23:07:10.759Z,25.60
2017-11-09T23:09:39.336Z,23.87
2017-11-09T23:12:07.863Z,23.90
2017-11-09T23:14:36.375Z,23.90
2017-11-09T23:17:11.900Z,23.77
2017-11-09T23:19:40.540Z,23.07
2017-11-09T23:22:09.252Z,22.97
2017-11-09T23:24:37.886Z,22.63
2017-11-09T23:27:09.928Z,23.13
2017-11-09T23:29:39.387Z,22.30
2017-11-09T23:32:08.137Z,24.80
2017-11-09T23:34:36.787Z,22.10
2017-11-09T23:37:09.432Z,22.50
2017-11-09T23:39:38.085Z,22.63
2017-11-09T23:42:06.802Z,20.83
2017-11-09T23:44:35.508Z,21.17
2017-11-09T23:47:08.348Z,19.60
2017-11-09T23:49:37.043Z,21.60
2017-11-09T23:52:05.727Z,20.33
2017-11-09T23:54:34.403Z,21.43
2017-11-09T23:57:07.122Z,21.27
2017-11-09T23:59:35.819Z,20.17
